sensor_id;sensor_type;location;lat;lon;timestamp;pressure;altitude;pressure_sealevel;temperature;humidity
75594;BME280;64176;49.156;7.810;2023-03-01T00:02:30;100063.78;;;-2.49;75.43
75594;BME280;64176;49.156;7.810;2023-03-01T00:05:17;100073.78;;;-2.51;74.57
75594;BME280;64176;49.156;7.810;2023-03-01T00:08:01;100069.50;;;-2.52;75.00
75594;BME280;64176;49.156;7.810;2023-03-01T00:10:47;100067.19;;;-2.49;75.06
75594;BME280;64176;49.156;7.810;2023-03-01T00:13:39;100072.88;;;-2.40;74.19
75594;BME280;64176;49.156;7.810;2023-03-01T00:16:32;100068.19;;;-2.59;75.69
75594;BME280;64176;49.156;7.810;2023-03-01T00:19:20;100064.66;;;-2.49;74.29
75594;BME280;64176;49.156;7.810;2023-03-01T00:22:05;100065.59;;;-2.83;75.89
75594;BME280;64176;49.156;7.810;2023-03-01T00:24:49;100066.81;;;-2.78;76.71
75594;BME280;64176;49.156;7.810;2023-03-01T00:27:35;100057.31;;;-2.58;75.39
75594;BME280;64176;49.156;7.810;2023-03-01T00:30:22;100066.69;;;-2.80;76.01
75594;BME280;64176;49.156;7.810;2023-03-01T00:33:06;100070.34;;;-2.76;76.21
75594;BME280;64176;49.156;7.810;2023-03-01T00:35:52;100071.97;;;-2.77;76.33
75594;BME280;64176;49.156;7.810;2023-03-01T00:38:40;100056.13;;;-2.74;76.54
75594;BME280;64176;49.156;7.810;2023-03-01T00:41:30;100060.53;;;-2.83;76.15
75594;BME280;64176;49.156;7.810;2023-03-01T00:44:14;100066.69;;;-2.80;76.93
75594;BME280;64176;49.156;7.810;2023-03-01T00:46:58;100051.53;;;-2.91;76.43
75594;BME280;64176;49.156;7.810;2023-03-01T00:49:44;100064.72;;;-2.96;77.29
75594;BME280;64176;49.156;7.810;2023-03-01T00:52:31;100068.75;;;-2.74;76.03
75594;BME280;64176;49.156;7.810;2023-03-01T00:55:15;100058.47;;;-2.77;75.69
75594;BME280;64176;49.156;7.810;2023-03-01T00:57:58;100065.28;;;-2.88;76.55
75594;BME280;64176;49.156;7.810;2023-03-01T01:00:45;100043.63;;;-2.96;76.51
75594;BME280;64176;49.156;7.810;2023-03-01T01:03:29;100056.06;;;-2.87;76.05
75594;BME280;64176;49.156;7.810;2023-03-01T01:06:24;100050.13;;;-2.88;75.82
75594;BME280;64176;49.156;7.810;2023-03-01T01:09:10;100053.81;;;-2.83;75.68
75594;BME280;64176;49.156;7.810;2023-03-01T01:12:03;100055.03;;;-2.78;75.25
75594;BME280;64176;49.156;7.810;2023-03-01T01:14:48;100056.25;;;-3.08;76.59
75594;BME280;64176;49.156;7.810;2023-03-01T01:17:32;100063.53;;;-3.01;76.85
75594;BME280;64176;49.156;7.810;2023-03-01T01:20:27;100060.88;;;-2.90;76.34
75594;BME280;64176;49.156;7.810;2023-03-01T01:23:11;100063.41;;;-2.90;76.50
75594;BME280;64176;49.156;7.810;2023-03-01T01:26:03;100047.47;;;-2.89;75.88
75594;BME280;64176;49.156;7.810;2023-03-01T01:28:52;100045.13;;;-2.86;76.33
75594;BME280;64176;49.156;7.810;2023-03-01T01:31:38;100050.00;;;-3.01;76.28
75594;BME280;64176;49.156;7.810;2023-03-01T01:34:26;100039.31;;;-3.09;76.92
75594;BME280;64176;49.156;7.810;2023-03-01T01:37:10;100029.34;;;-3.07;76.16
75594;BME280;64176;49.156;7.810;2023-03-01T01:39:54;100023.72;;;-3.03;76.60
75594;BME280;64176;49.156;7.810;2023-03-01T01:42:43;100025.94;;;-3.19;77.44
75594;BME280;64176;49.156;7.810;2023-03-01T01:45:34;100018.22;;;-3.09;77.18
75594;BME280;64176;49.156;7.810;2023-03-01T01:48:22;100026.28;;;-3.26;77.84
75594;BME280;64176;49.156;7.810;2023-03-01T01:51:15;100018.03;;;-3.36;77.85
75594;BME280;64176;49.156;7.810;2023-03-01T01:54:01;100024.63;;;-3.14;76.69
75594;BME280;64176;49.156;7.810;2023-03-01T01:56:52;100030.09;;;-3.20;76.84
75594;BME280;64176;49.156;7.810;2023-03-01T01:59:40;100029.78;;;-3.01;76.96
75594;BME280;64176;49.156;7.810;2023-03-01T02:02:28;100021.75;;;-2.96;75.90
75594;BME280;64176;49.156;7.810;2023-03-01T02:05:39;100016.13;;;-2.91;76.83
75594;BME280;64176;49.156;7.810;2023-03-01T02:08:23;100010.56;;;-3.46;77.23
75594;BME280;64176;49.156;7.810;2023-03-01T02:11:10;100008.22;;;-3.19;77.06
75594;BME280;64176;49.156;7.810;2023-03-01T02:13:58;100006.28;;;-3.23;76.62
75594;BME280;64176;49.156;7.810;2023-03-01T02:16:45;100004.75;;;-3.10;76.29
75594;BME280;64176;49.156;7.810;2023-03-01T02:22:51;99989.34;;;-3.24;77.68
75594;BME280;64176;49.156;7.810;2023-03-01T02:25:49;99983.53;;;-3.35;77.09
75594;BME280;64176;49.156;7.810;2023-03-01T02:28:40;99987.69;;;-3.59;77.81
75594;BME280;64176;49.156;7.810;2023-03-01T02:31:28;99989.00;;;-3.41;78.40
75594;BME280;64176;49.156;7.810;2023-03-01T02:34:27;99985.94;;;-3.48;78.47
75594;BME280;64176;49.156;7.810;2023-03-01T02:37:16;99958.69;;;-3.41;77.71
75594;BME280;64176;49.156;7.810;2023-03-01T02:40:11;99974.97;;;-3.37;77.81
75594;BME280;64176;49.156;7.810;2023-03-01T02:42:58;99971.00;;;-3.69;79.54
75594;BME280;64176;49.156;7.810;2023-03-01T02:45:51;99969.47;;;-3.78;79.07
75594;BME280;64176;49.156;7.810;2023-03-01T02:48:51;99948.59;;;-3.64;78.43
75594;BME280;64176;49.156;7.810;2023-03-01T02:51:52;99951.34;;;-3.73;79.33
75594;BME280;64176;49.156;7.810;2023-03-01T02:54:52;99954.88;;;-3.47;78.57
75594;BME280;64176;49.156;7.810;2023-03-01T02:57:43;99962.34;;;-3.60;79.39
75594;BME280;64176;49.156;7.810;2023-03-01T03:00:37;99959.91;;;-3.59;79.19
75594;BME280;64176;49.156;7.810;2023-03-01T03:03:23;99953.97;;;-3.36;78.04
75594;BME280;64176;49.156;7.810;2023-03-01T03:06:08;99953.53;;;-3.42;78.50
75594;BME280;64176;49.156;7.810;2023-03-01T03:08:52;99954.53;;;-3.63;79.02
75594;BME280;64176;49.156;7.810;2023-03-01T03:11:36;99946.84;;;-3.77;79.62
75594;BME280;64176;49.156;7.810;2023-03-01T03:14:23;99955.63;;;-3.48;78.64
75594;BME280;64176;49.156;7.810;2023-03-01T03:17:10;99941.59;;;-3.45;78.63
75594;BME280;64176;49.156;7.810;2023-03-01T03:19:53;99941.00;;;-3.41;79.25
75594;BME280;64176;49.156;7.810;2023-03-01T03:22:46;99936.06;;;-3.62;79.21
75594;BME280;64176;49.156;7.810;2023-03-01T03:25:33;99939.94;;;-3.68;79.52
75594;BME280;64176;49.156;7.810;2023-03-01T03:28:21;99928.50;;;-3.62;79.35
75594;BME280;64176;49.156;7.810;2023-03-01T03:31:07;99930.84;;;-3.65;79.11
75594;BME280;64176;49.156;7.810;2023-03-01T03:33:51;99921.56;;;-3.53;79.21
75594;BME280;64176;49.156;7.810;2023-03-01T03:36:38;99930.06;;;-3.64;78.82
75594;BME280;64176;49.156;7.810;2023-03-01T03:39:23;99933.00;;;-3.70;79.93
75594;BME280;64176;49.156;7.810;2023-03-01T03:42:10;99904.25;;;-3.72;79.50
75594;BME280;64176;49.156;7.810;2023-03-01T03:44:59;99921.69;;;-3.63;79.74
75594;BME280;64176;49.156;7.810;2023-03-01T03:47:43;99920.72;;;-3.54;80.11
75594;BME280;64176;49.156;7.810;2023-03-01T03:50:30;99918.41;;;-3.51;78.36
75594;BME280;64176;49.156;7.810;2023-03-01T03:53:22;99915.44;;;-3.45;79.43
75594;BME280;64176;49.156;7.810;2023-03-01T03:56:11;99898.75;;;-3.55;78.89
75594;BME280;64176;49.156;7.810;2023-03-01T03:58:56;99910.06;;;-3.50;79.55
75594;BME280;64176;49.156;7.810;2023-03-01T04:01:40;99905.22;;;-3.35;78.77
75594;BME280;64176;49.156;7.810;2023-03-01T04:04:23;99895.97;;;-3.35;78.63
75594;BME280;64176;49.156;7.810;2023-03-01T04:07:10;99901.81;;;-3.59;79.63
75594;BME280;64176;49.156;7.810;2023-03-01T04:09:54;99900.72;;;-3.86;79.54
75594;BME280;64176;49.156;7.810;2023-03-01T04:12:43;99898.53;;;-3.70;79.30
75594;BME280;64176;49.156;7.810;2023-03-01T04:15:32;99890.44;;;-3.65;80.49
75594;BME280;64176;49.156;7.810;2023-03-01T04:18:22;99890.97;;;-3.70;79.80
75594;BME280;64176;49.156;7.810;2023-03-01T04:21:07;99888.44;;;-3.58;79.13
75594;BME280;64176;49.156;7.810;2023-03-01T04:23:51;99896.44;;;-3.52;79.13
75594;BME280;64176;49.156;7.810;2023-03-01T04:26:36;99887.97;;;-3.64;79.91
75594;BME280;64176;49.156;7.810;2023-03-01T04:29:22;99890.19;;;-3.80;81.13
75594;BME280;64176;49.156;7.810;2023-03-01T04:32:09;99896.88;;;-3.57;79.63
75594;BME280;64176;49.156;7.810;2023-03-01T04:34:53;99881.84;;;-3.56;79.26
75594;BME280;64176;49.156;7.810;2023-03-01T04:37:37;99885.91;;;-3.81;81.46
75594;BME280;64176;49.156;7.810;2023-03-01T04:40:26;99890.31;;;-3.55;80.58
75594;BME280;64176;49.156;7.810;2023-03-01T04:43:11;99883.69;;;-3.53;79.97
75594;BME280;64176;49.156;7.810;2023-03-01T04:46:17;99885.69;;;-3.84;80.22
75594;BME280;64176;49.156;7.810;2023-03-01T04:49:02;99883.16;;;-3.84;81.15
75594;BME280;64176;49.156;7.810;2023-03-01T04:51:47;99883.91;;;-3.62;80.49
75594;BME280;64176;49.156;7.810;2023-03-01T04:54:35;99887.56;;;-3.70;79.91
75594;BME280;64176;49.156;7.810;2023-03-01T04:57:19;99894.13;;;-3.60;79.92
75594;BME280;64176;49.156;7.810;2023-03-01T05:00:06;99897.44;;;-3.61;80.56
75594;BME280;64176;49.156;7.810;2023-03-01T05:03:08;99898.97;;;-3.75;80.63
75594;BME280;64176;49.156;7.810;2023-03-01T05:05:52;99894.38;;;-3.81;79.95
75594;BME280;64176;49.156;7.810;2023-03-01T05:08:38;99886.25;;;-3.77;80.72
75594;BME280;64176;49.156;7.810;2023-03-01T05:11:22;99890.31;;;-3.79;80.90
75594;BME280;64176;49.156;7.810;2023-03-01T05:14:09;99894.25;;;-3.82;81.24
75594;BME280;64176;49.156;7.810;2023-03-01T05:16:53;99895.34;;;-3.90;80.98
75594;BME280;64176;49.156;7.810;2023-03-01T05:19:39;99880.09;;;-3.80;81.04
75594;BME280;64176;49.156;7.810;2023-03-01T05:22:27;99882.72;;;-3.67;80.40
75594;BME280;64176;49.156;7.810;2023-03-01T05:25:11;99888.66;;;-3.78;80.91
75594;BME280;64176;49.156;7.810;2023-03-01T05:27:57;99888.44;;;-3.70;80.69
75594;BME280;64176;49.156;7.810;2023-03-01T05:30:41;99887.69;;;-3.80;81.41
75594;BME280;64176;49.156;7.810;2023-03-01T05:33:25;99892.28;;;-3.75;80.77
75594;BME280;64176;49.156;7.810;2023-03-01T05:36:09;99895.66;;;-3.74;80.13
75594;BME280;64176;49.156;7.810;2023-03-01T05:38:54;99883.28;;;-3.83;80.51
75594;BME280;64176;49.156;7.810;2023-03-01T05:41:42;99877.13;;;-3.75;81.14
75594;BME280;64176;49.156;7.810;2023-03-01T05:44:27;99892.50;;;-3.60;80.15
75594;BME280;64176;49.156;7.810;2023-03-01T05:47:12;99883.63;;;-3.78;80.66
75594;BME280;64176;49.156;7.810;2023-03-01T05:49:56;99891.31;;;-3.77;80.41
75594;BME280;64176;49.156;7.810;2023-03-01T05:52:42;99884.69;;;-3.86;80.58
75594;BME280;64176;49.156;7.810;2023-03-01T05:55:30;99896.25;;;-3.78;80.52
75594;BME280;64176;49.156;7.810;2023-03-01T05:58:22;99894.69;;;-4.11;81.83
75594;BME280;64176;49.156;7.810;2023-03-01T06:01:11;99898.31;;;-3.84;80.55
75594;BME280;64176;49.156;7.810;2023-03-01T06:03:56;99895.47;;;-4.00;80.51
75594;BME280;64176;49.156;7.810;2023-03-01T06:06:42;99898.19;;;-3.97;81.60
75594;BME280;64176;49.156;7.810;2023-03-01T06:09:34;99895.91;;;-3.71;80.04
75594;BME280;64176;49.156;7.810;2023-03-01T06:12:18;99898.31;;;-3.84;79.97
75594;BME280;64176;49.156;7.810;2023-03-01T06:15:05;99874.28;;;-3.79;80.70
75594;BME280;64176;49.156;7.810;2023-03-01T06:17:54;99891.84;;;-3.81;81.50
75594;BME280;64176;49.156;7.810;2023-03-01T06:20:40;99889.31;;;-3.92;80.75
75594;BME280;64176;49.156;7.810;2023-03-01T06:23:27;99887.56;;;-3.70;80.15
75594;BME280;64176;49.156;7.810;2023-03-01T06:26:13;99885.91;;;-3.70;79.97
75594;BME280;64176;49.156;7.810;2023-03-01T06:29:00;99874.28;;;-3.79;80.72
75594;BME280;64176;49.156;7.810;2023-03-01T06:31:44;99875.56;;;-3.61;80.31
75594;BME280;64176;49.156;7.810;2023-03-01T06:34:31;99881.84;;;-3.68;80.43
75594;BME280;64176;49.156;7.810;2023-03-01T06:37:16;99880.50;;;-3.62;80.30
75594;BME280;64176;49.156;7.810;2023-03-01T06:40:01;99882.16;;;-3.86;81.25
75594;BME280;64176;49.156;7.810;2023-03-01T06:42:53;99880.88;;;-3.70;80.14
75594;BME280;64176;49.156;7.810;2023-03-01T06:45:37;99882.09;;;-3.88;80.45
75594;BME280;64176;49.156;7.810;2023-03-01T06:48:23;99876.69;;;-3.81;80.79
75594;BME280;64176;49.156;7.810;2023-03-01T06:51:07;99884.16;;;-3.82;81.01
75594;BME280;64176;49.156;7.810;2023-03-01T06:53:51;99870.50;;;-3.49;80.30
75594;BME280;64176;49.156;7.810;2023-03-01T06:56:35;99870.50;;;-3.49;80.37
75594;BME280;64176;49.156;7.810;2023-03-01T06:59:23;99867.63;;;-3.42;80.57
75594;BME280;64176;49.156;7.810;2023-03-01T07:02:13;99876.88;;;-3.43;80.43
75594;BME280;64176;49.156;7.810;2023-03-01T07:05:00;99864.19;;;-3.31;80.17
75594;BME280;64176;49.156;7.810;2023-03-01T07:07:46;99868.34;;;-3.20;80.00
75594;BME280;64176;49.156;7.810;2023-03-01T07:10:33;99863.69;;;-3.02;79.99
75594;BME280;64176;49.156;7.810;2023-03-01T07:13:19;99861.25;;;-2.76;79.62
75594;BME280;64176;49.156;7.810;2023-03-01T07:16:06;99857.72;;;-2.53;78.67
75594;BME280;64176;49.156;7.810;2023-03-01T07:18:55;99849.97;;;-2.56;78.77
75594;BME280;64176;49.156;7.810;2023-03-01T07:21:39;99856.84;;;-2.67;79.57
75594;BME280;64176;49.156;7.810;2023-03-01T07:24:23;99852.13;;;-2.36;77.86
75594;BME280;64176;49.156;7.810;2023-03-01T07:27:12;99854.41;;;-2.14;77.21
75594;BME280;64176;49.156;7.810;2023-03-01T07:29:56;99855.09;;;-1.64;75.72
75594;BME280;64176;49.156;7.810;2023-03-01T07:32:42;99855.19;;;-1.21;73.24
75594;BME280;64176;49.156;7.810;2023-03-01T07:35:27;99837.47;;;-0.93;72.02
75594;BME280;64176;49.156;7.810;2023-03-01T07:38:11;99842.50;;;-0.80;71.40
75594;BME280;64176;49.156;7.810;2023-03-01T07:41:05;99844.03;;;-0.40;69.29
75594;BME280;64176;49.156;7.810;2023-03-01T07:43:51;99839.75;;;-0.11;68.34
75594;BME280;64176;49.156;7.810;2023-03-01T07:46:38;99828.47;;;0.29;67.62
75594;BME280;64176;49.156;7.810;2023-03-01T07:49:24;99831.00;;;0.44;66.12
75594;BME280;64176;49.156;7.810;2023-03-01T07:52:12;99828.47;;;0.60;66.09
75594;BME280;64176;49.156;7.810;2023-03-01T07:54:56;99819.94;;;0.44;65.48
75594;BME280;64176;49.156;7.810;2023-03-01T07:57:41;99837.34;;;0.21;66.51
75594;BME280;64176;49.156;7.810;2023-03-01T08:00:29;99828.13;;;0.23;67.23
75594;BME280;64176;49.156;7.810;2023-03-01T08:03:16;99819.97;;;0.29;66.57
75594;BME280;64176;49.156;7.810;2023-03-01T08:06:04;99818.53;;;0.34;66.22
75594;BME280;64176;49.156;7.810;2023-03-01T08:08:48;99820.25;;;0.50;66.34
75594;BME280;64176;49.156;7.810;2023-03-01T08:11:32;99821.88;;;0.80;65.72
75594;BME280;64176;49.156;7.810;2023-03-01T08:14:19;99822.56;;;1.08;64.35
75594;BME280;64176;49.156;7.810;2023-03-01T08:17:03;99817.78;;;1.65;63.00
75594;BME280;64176;49.156;7.810;2023-03-01T08:19:49;99806.78;;;1.32;62.01
75594;BME280;64176;49.156;7.810;2023-03-01T08:22:35;99804.69;;;1.25;62.20
75594;BME280;64176;49.156;7.810;2023-03-01T08:25:19;99806.16;;;1.03;63.61
75594;BME280;64176;49.156;7.810;2023-03-01T08:28:04;99808.13;;;0.93;63.92
75594;BME280;64176;49.156;7.810;2023-03-01T08:30:48;99799.22;;;1.01;63.66
75594;BME280;64176;49.156;7.810;2023-03-01T08:33:32;99800.84;;;0.99;63.15
75594;BME280;64176;49.156;7.810;2023-03-01T08:36:17;99816.34;;;1.03;63.33
75594;BME280;64176;49.156;7.810;2023-03-01T08:39:05;99801.41;;;1.09;62.80
75594;BME280;64176;49.156;7.810;2023-03-01T08:41:49;99802.66;;;1.01;62.83
75594;BME280;64176;49.156;7.810;2023-03-01T08:44:33;99797.19;;;1.10;63.10
75594;BME280;64176;49.156;7.810;2023-03-01T08:47:18;99800.81;;;1.15;62.81
75594;BME280;64176;49.156;7.810;2023-03-01T08:50:05;99789.84;;;1.16;62.74
75594;BME280;64176;49.156;7.810;2023-03-01T08:52:50;99781.06;;;1.27;62.55
75594;BME280;64176;49.156;7.810;2023-03-01T08:55:36;99792.56;;;1.19;62.17
75594;BME280;64176;49.156;7.810;2023-03-01T08:58:20;99789.13;;;1.19;61.88
75594;BME280;64176;49.156;7.810;2023-03-01T09:01:12;99782.31;;;1.35;62.08
75594;BME280;64176;49.156;7.810;2023-03-01T09:03:56;99773.25;;;1.40;61.65
75594;BME280;64176;49.156;7.810;2023-03-01T09:06:43;99774.69;;;1.35;61.65
75594;BME280;64176;49.156;7.810;2023-03-01T09:09:27;99780.03;;;1.40;61.59
75594;BME280;64176;49.156;7.810;2023-03-01T09:12:11;99776.97;;;1.47;61.80
75594;BME280;64176;49.156;7.810;2023-03-01T09:14:55;99771.78;;;1.62;61.51
75594;BME280;64176;49.156;7.810;2023-03-01T09:17:39;99771.25;;;1.69;60.99
75594;BME280;64176;49.156;7.810;2023-03-01T09:20:23;99761.06;;;1.69;60.66
75594;BME280;64176;49.156;7.810;2023-03-01T09:23:07;99764.56;;;1.71;60.61
75594;BME280;64176;49.156;7.810;2023-03-01T09:25:52;99753.97;;;1.97;60.43
75594;BME280;64176;49.156;7.810;2023-03-01T09:28:42;99754.59;;;1.93;60.24
75594;BME280;64176;49.156;7.810;2023-03-01T09:31:28;99758.44;;;2.03;59.61
75594;BME280;64176;49.156;7.810;2023-03-01T09:34:11;99759.31;;;2.03;59.28
75594;BME280;64176;49.156;7.810;2023-03-01T09:36:57;99753.88;;;1.96;60.02
75594;BME280;64176;49.156;7.810;2023-03-01T09:39:44;99757.88;;;2.08;59.51
75594;BME280;64176;49.156;7.810;2023-03-01T09:42:29;99763.03;;;2.10;59.37
75594;BME280;64176;49.156;7.810;2023-03-01T09:45:25;99756.78;;;2.03;59.44
75594;BME280;64176;49.156;7.810;2023-03-01T09:48:19;99762.69;;;2.02;58.93
75594;BME280;64176;49.156;7.810;2023-03-01T09:51:13;99759.84;;;2.14;59.26
75594;BME280;64176;49.156;7.810;2023-03-01T09:54:01;99761.69;;;2.36;59.17
75594;BME280;64176;49.156;7.810;2023-03-01T09:59:53;99759.88;;;2.70;58.48
75594;BME280;64176;49.156;7.810;2023-03-01T10:05:35;99755.91;;;2.96;57.84
75594;BME280;64176;49.156;7.810;2023-03-01T10:08:53;99759.78;;;2.88;58.16
75594;BME280;64176;49.156;7.810;2023-03-01T10:11:48;99749.25;;;2.61;57.86
75594;BME280;64176;49.156;7.810;2023-03-01T10:14:37;99757.13;;;2.85;58.08
75594;BME280;64176;49.156;7.810;2023-03-01T10:17:42;99744.22;;;2.82;57.73
75594;BME280;64176;49.156;7.810;2023-03-01T10:20:43;99739.44;;;2.89;57.87
75594;BME280;64176;49.156;7.810;2023-03-01T10:23:34;99732.88;;;2.95;57.17
75594;BME280;64176;49.156;7.810;2023-03-01T10:29:50;99728.28;;;2.87;56.88
75594;BME280;64176;49.156;7.810;2023-03-01T10:32:37;99735.25;;;3.11;56.77
75594;BME280;64176;49.156;7.810;2023-03-01T10:35:29;99726.41;;;3.03;56.76
75594;BME280;64176;49.156;7.810;2023-03-01T10:38:14;99722.09;;;3.02;57.02
75594;BME280;64176;49.156;7.810;2023-03-01T10:41:06;99725.16;;;2.74;57.81
75594;BME280;64176;49.156;7.810;2023-03-01T10:43:56;99722.69;;;3.15;56.51
75594;BME280;64176;49.156;7.810;2023-03-01T10:46:40;99724.38;;;3.36;56.35
75594;BME280;64176;49.156;7.810;2023-03-01T10:49:24;99718.59;;;3.60;55.67
75594;BME280;64176;49.156;7.810;2023-03-01T10:52:18;99718.91;;;3.47;56.03
75594;BME280;64176;49.156;7.810;2023-03-01T10:55:44;99712.78;;;3.64;55.61
75594;BME280;64176;49.156;7.810;2023-03-01T10:58:29;99697.97;;;3.14;55.25
75594;BME280;64176;49.156;7.810;2023-03-01T11:06:58;99694.84;;;3.84;54.60
75594;BME280;64176;49.156;7.810;2023-03-01T11:09:42;99687.09;;;4.05;54.19
75594;BME280;64176;49.156;7.810;2023-03-01T11:12:29;99669.06;;;3.79;54.44
75594;BME280;64176;49.156;7.810;2023-03-01T11:15:23;99677.97;;;4.11;54.21
75594;BME280;64176;49.156;7.810;2023-03-01T11:18:39;99668.03;;;4.41;53.30
75594;BME280;64176;49.156;7.810;2023-03-01T11:21:24;99665.50;;;4.43;53.17
75594;BME280;64176;49.156;7.810;2023-03-01T11:24:13;99659.13;;;4.55;52.92
75594;BME280;64176;49.156;7.810;2023-03-01T11:27:03;99653.06;;;4.53;53.20
75594;BME280;64176;49.156;7.810;2023-03-01T11:29:59;99647.44;;;4.38;53.37
75594;BME280;64176;49.156;7.810;2023-03-01T11:33:17;99637.34;;;4.43;52.76
75594;BME280;64176;49.156;7.810;2023-03-01T11:36:11;99638.41;;;4.48;52.62
75594;BME280;64176;49.156;7.810;2023-03-01T11:42:56;99618.63;;;4.93;52.06
75594;BME280;64176;49.156;7.810;2023-03-01T11:46:20;99620.22;;;4.64;51.86
75594;BME280;64176;49.156;7.810;2023-03-01T11:49:15;99614.44;;;4.95;51.77
75594;BME280;64176;49.156;7.810;2023-03-01T11:52:09;99615.53;;;5.28;50.86
75594;BME280;64176;49.156;7.810;2023-03-01T11:55:32;99619.44;;;5.17;50.83
75594;BME280;64176;49.156;7.810;2023-03-01T12:07:56;99592.31;;;5.24;50.42
75594;BME280;64176;49.156;7.810;2023-03-01T12:14:37;99566.03;;;5.58;50.20
75594;BME280;64176;49.156;7.810;2023-03-01T12:17:43;99555.28;;;5.69;49.48
75594;BME280;64176;49.156;7.810;2023-03-01T12:23:49;99554.38;;;5.67;48.58
75594;BME280;64176;49.156;7.810;2023-03-01T12:42:07;99527.66;;;6.19;48.27
75594;BME280;64176;49.156;7.810;2023-03-01T12:48:02;99516.00;;;6.32;48.29
75594;BME280;64176;49.156;7.810;2023-03-01T12:50:53;99518.78;;;6.06;47.92
75594;BME280;64176;49.156;7.810;2023-03-01T12:56:28;99518.06;;;6.12;47.64
75594;BME280;64176;49.156;7.810;2023-03-01T13:05:20;99503.59;;;6.47;47.63
75594;BME280;64176;49.156;7.810;2023-03-01T13:08:20;99505.06;;;6.37;47.64
75594;BME280;64176;49.156;7.810;2023-03-01T13:11:14;99486.31;;;6.08;46.87
75594;BME280;64176;49.156;7.810;2023-03-01T13:17:33;99488.31;;;6.53;47.19
75594;BME280;64176;49.156;7.810;2023-03-01T13:20:30;99492.69;;;6.55;46.90
75594;BME280;64176;49.156;7.810;2023-03-01T13:28:58;99483.19;;;6.53;46.47
75594;BME280;64176;49.156;7.810;2023-03-01T13:34:43;99472.97;;;6.54;46.62
75594;BME280;64176;49.156;7.810;2023-03-01T13:37:35;99469.75;;;6.63;46.33
75594;BME280;64176;49.156;7.810;2023-03-01T13:43:29;99456.06;;;6.64;46.26
75594;BME280;64176;49.156;7.810;2023-03-01T13:46:20;99443.16;;;6.60;46.63
75594;BME280;64176;49.156;7.810;2023-03-01T13:49:13;99438.19;;;6.67;46.47
75594;BME280;64176;49.156;7.810;2023-03-01T13:51:58;99450.41;;;6.77;45.79
75594;BME280;64176;49.156;7.810;2023-03-01T13:54:46;99444.09;;;6.65;46.34
75594;BME280;64176;49.156;7.810;2023-03-01T13:57:34;99437.19;;;6.61;46.05
75594;BME280;64176;49.156;7.810;2023-03-01T14:00:31;99440.06;;;6.74;45.89
75594;BME280;64176;49.156;7.810;2023-03-01T14:03:18;99427.28;;;6.77;45.65
75594;BME280;64176;49.156;7.810;2023-03-01T14:06:08;99437.03;;;6.90;45.59
75594;BME280;64176;49.156;7.810;2023-03-01T14:09:00;99437.13;;;6.59;46.21
75594;BME280;64176;49.156;7.810;2023-03-01T14:20:58;99437.03;;;6.90;45.17
75594;BME280;64176;49.156;7.810;2023-03-01T14:23:42;99434.63;;;6.98;45.82
75594;BME280;64176;49.156;7.810;2023-03-01T14:26:29;99413.28;;;6.65;45.41
75594;BME280;64176;49.156;7.810;2023-03-01T14:29:37;99426.50;;;6.80;45.26
75594;BME280;64176;49.156;7.810;2023-03-01T14:32:24;99421.53;;;6.87;46.13
75594;BME280;64176;49.156;7.810;2023-03-01T14:35:20;99418.66;;;6.74;46.10
75594;BME280;64176;49.156;7.810;2023-03-01T14:38:21;99419.00;;;6.89;45.97
75594;BME280;64176;49.156;7.810;2023-03-01T14:41:14;99416.63;;;6.98;45.36
75594;BME280;64176;49.156;7.810;2023-03-01T14:44:14;99419.59;;;6.77;45.39
75594;BME280;64176;49.156;7.810;2023-03-01T14:47:04;99423.44;;;6.94;45.55
75594;BME280;64176;49.156;7.810;2023-03-01T14:53:02;99419.63;;;6.79;45.21
75594;BME280;64176;49.156;7.810;2023-03-01T14:55:53;99413.75;;;6.83;45.46
75594;BME280;64176;49.156;7.810;2023-03-01T14:58:43;99410.34;;;6.84;44.95
75594;BME280;64176;49.156;7.810;2023-03-01T15:01:30;99410.53;;;6.93;45.40
75594;BME280;64176;49.156;7.810;2023-03-01T15:04:15;99423.19;;;6.85;45.43
75594;BME280;64176;49.156;7.810;2023-03-01T15:06:59;99416.78;;;7.04;45.63
75594;BME280;64176;49.156;7.810;2023-03-01T15:09:48;99423.06;;;6.79;45.02
75594;BME280;64176;49.156;7.810;2023-03-01T15:12:40;99414.63;;;6.85;45.66
75594;BME280;64176;49.156;7.810;2023-03-01T15:15:34;99428.31;;;6.85;45.52
75594;BME280;64176;49.156;7.810;2023-03-01T15:18:28;99433.34;;;6.79;45.43
75594;BME280;64176;49.156;7.810;2023-03-01T15:21:18;99423.91;;;6.78;45.49
75594;BME280;64176;49.156;7.810;2023-03-01T15:27:20;99435.38;;;6.92;45.19
75594;BME280;64176;49.156;7.810;2023-03-01T15:30:13;99445.59;;;6.91;45.45
75594;BME280;64176;49.156;7.810;2023-03-01T15:33:26;99455.53;;;6.77;45.42
75594;BME280;64176;49.156;7.810;2023-03-01T15:42:36;99470.13;;;6.78;45.36
75594;BME280;64176;49.156;7.810;2023-03-01T15:45:26;99468.25;;;6.71;45.57
75594;BME280;64176;49.156;7.810;2023-03-01T15:48:17;99469.16;;;6.73;44.63
75594;BME280;64176;49.156;7.810;2023-03-01T15:51:11;99471.44;;;6.61;44.83
75594;BME280;64176;49.156;7.810;2023-03-01T15:54:00;99467.09;;;6.58;46.23
75594;BME280;64176;49.156;7.810;2023-03-01T15:56:47;99477.50;;;6.65;46.09
75594;BME280;64176;49.156;7.810;2023-03-01T15:59:31;99466.75;;;6.45;45.97
75594;BME280;64176;49.156;7.810;2023-03-01T16:02:15;99477.97;;;6.48;45.84
75594;BME280;64176;49.156;7.810;2023-03-01T16:04:59;99473.53;;;6.43;46.32
75594;BME280;64176;49.156;7.810;2023-03-01T16:07:43;99470.97;;;6.43;45.72
75594;BME280;64176;49.156;7.810;2023-03-01T16:10:27;99463.81;;;6.31;45.93
75594;BME280;64176;49.156;7.810;2023-03-01T16:13:12;99460.59;;;6.38;45.62
75594;BME280;64176;49.156;7.810;2023-03-01T16:15:57;99454.38;;;6.30;45.90
75594;BME280;64176;49.156;7.810;2023-03-01T16:18:45;99464.59;;;6.27;46.11
75594;BME280;64176;49.156;7.810;2023-03-01T16:21:29;99448.91;;;6.16;46.74
75594;BME280;64176;49.156;7.810;2023-03-01T16:24:15;99456.53;;;6.13;46.67
75594;BME280;64176;49.156;7.810;2023-03-01T16:27:00;99448.88;;;6.15;46.69
75594;BME280;64176;49.156;7.810;2023-03-01T16:29:47;99446.25;;;6.13;46.57
75594;BME280;64176;49.156;7.810;2023-03-01T16:32:31;99433.44;;;6.13;46.14
75594;BME280;64176;49.156;7.810;2023-03-01T16:35:18;99441.91;;;6.11;46.56
75594;BME280;64176;49.156;7.810;2023-03-01T16:38:03;99443.66;;;6.12;46.52
75594;BME280;64176;49.156;7.810;2023-03-01T16:40:48;99441.81;;;6.08;46.51
75594;BME280;64176;49.156;7.810;2023-03-01T16:43:35;99455.22;;;5.96;47.40